Time;durP1;ratioP1;P1;durP2;ratioP2;P2;SDS_P1;SDS_P2;PMS_P1;PMS_P2;Temp;Humidity;BMP_temperature;BMP_pressure;BME280_temperature;BME280_humidity;BME280_pressure;Samples;Min_cycle;Max_cycle;Signal;HPM_P1;HPM_P2
2021/12/21 00:00:32;;;;;;;;;;;;;;;-1.54;88.29;101473.16;5049206;28;19921;-75
2021/12/21 00:02:57;;;;;;;;;;;;;;;-1.54;87.69;101474.91;5041613;28;19974;-75
2021/12/21 00:05:26;;;;;;;;;;;;;;;-1.58;87.75;101474.16;5034483;28;20338;-75
2021/12/21 00:07:53;;;;;;;;;;;;;;;-1.64;87.49;101476.97;5049122;28;19970;-75
2021/12/21 00:10:19;;;;;;;;;;;;;;;-1.64;88.23;101481.31;5044866;28;19921;-75
2021/12/21 00:15:37;;;;;;;;;;;;;;;-1.69;88.52;101478.00;5049710;28;19928;-75
2021/12/21 00:18:15;;;;;;;;;;;;;;;-1.72;88.18;101477.22;5049060;28;19921;-75
2021/12/21 00:23:30;;;;;;;;;;;;;;;-1.72;88.20;101468.56;5049752;28;20305;-75
2021/12/21 00:25:56;;;;;;;;;;;;;;;-1.74;87.84;101473.81;5043431;28;19921;-75
2021/12/21 00:28:21;;;;;;;;;;;;;;;-1.75;88.44;101472.13;5047833;28;20289;-75
2021/12/21 00:30:46;;;;;;;;;;;;;;;-1.79;88.29;101474.84;5049126;28;20373;-75
2021/12/21 00:33:12;;;;;;;;;;;;;;;-1.81;88.79;101469.75;5048932;28;20077;-75
2021/12/21 00:35:37;;;;;;;;;;;;;;;-1.88;88.73;101459.59;5030957;28;19921;-75
2021/12/21 00:38:04;;;;;;;;;;;;;;;-1.94;88.52;101458.06;5049280;28;19924;-75
2021/12/21 00:40:29;;;;;;;;;;;;;;;-1.96;88.32;101457.25;5046899;28;19974;-75
2021/12/21 00:42:54;;;;;;;;;;;;;;;-2.02;88.60;101452.28;5032041;28;20007;-75
2021/12/21 00:45:20;;;;;;;;;;;;;;;-2.03;88.87;101447.97;5051970;28;19967;-75
2021/12/21 00:47:48;;;;;;;;;;;;;;;-2.06;88.99;101448.91;5054936;28;20301;-75
2021/12/21 00:50:17;;;;;;;;;;;;;;;-2.08;88.96;101447.28;5053432;28;19967;-75
2021/12/21 00:52:42;;;;;;;;;;;;;;;-2.05;89.82;101444.56;5052887;28;20027;-75
2021/12/21 00:55:08;;;;;;;;;;;;;;;-2.03;90.18;101448.81;5034718;28;20063;-75
2021/12/21 00:57:33;;;;;;;;;;;;;;;-1.98;90.69;101443.47;5048006;28;19988;-75
2021/12/21 00:59:58;;;;;;;;;;;;;;;-2.02;89.02;101436.72;5044974;28;19929;-75
2021/12/21 01:02:24;;;;;;;;;;;;;;;-2.00;90.10;101437.50;5043216;28;20440;-75
2021/12/21 01:04:50;;;;;;;;;;;;;;;-1.93;90.10;101446.81;5052347;28;19928;-75
2021/12/21 01:07:29;;;;;;;;;;;;;;;-1.92;88.96;101438.97;5052089;28;19920;-75
2021/12/21 01:28:15;;;;;;;;;;;;;;;-1.75;87.92;101428.03;5051207;28;20339;-76
2021/12/21 01:30:53;;;;;;;;;;;;;;;-1.65;87.05;101438.94;5032305;28;19921;-75
2021/12/21 01:35:57;;;;;;;;;;;;;;;-1.56;86.21;101436.06;5051467;28;19927;-75
2021/12/21 01:38:34;;;;;;;;;;;;;;;-1.46;85.82;101430.56;5050318;28;19932;-75
2021/12/21 01:51:22;;;;;;;;;;;;;;;-1.58;84.60;101432.66;5052184;28;20357;-75
2021/12/21 01:53:47;;;;;;;;;;;;;;;-1.75;85.09;101428.03;5052440;28;20020;-76
2021/12/21 01:56:13;;;;;;;;;;;;;;;-1.96;85.64;101424.41;5047096;28;19960;-75
2021/12/21 01:58:39;;;;;;;;;;;;;;;-2.06;85.35;101428.19;5035034;28;20545;-75
2021/12/21 02:01:06;;;;;;;;;;;;;;;-2.21;86.22;101424.34;5052354;28;20369;-75
2021/12/21 02:03:31;;;;;;;;;;;;;;;-2.31;86.48;101428.13;5034015;28;19943;-77
2021/12/21 02:05:56;;;;;;;;;;;;;;;-2.47;87.79;101422.56;5051115;28;19950;-77
2021/12/21 02:08:21;;;;;;;;;;;;;;;-2.46;87.37;101418.22;5051364;28;20297;-77
2021/12/21 02:10:47;;;;;;;;;;;;;;;-2.50;87.32;101424.38;5050769;28;20366;-76
2021/12/21 02:13:12;;;;;;;;;;;;;;;-2.62;88.33;101418.69;5050008;28;20300;-77
2021/12/21 02:15:37;;;;;;;;;;;;;;;-2.58;88.42;101420.28;5051040;28;20297;-77
2021/12/21 02:21:06;;;;;;;;;;;;;;;-2.81;89.18;101420.97;5050811;28;19924;-75
2021/12/21 02:23:36;;;;;;;;;;;;;;;-2.88;88.91;101424.63;5050940;28;19924;-76
2021/12/21 02:28:48;;;;;;;;;;;;;;;-3.03;90.20;101423.31;5037444;28;19928;-76
2021/12/21 02:31:16;;;;;;;;;;;;;;;-3.04;90.14;101420.78;5040843;28;19921;-76
2021/12/21 02:33:41;;;;;;;;;;;;;;;-3.06;90.03;101422.53;5025464;28;19927;-77
2021/12/21 02:36:06;;;;;;;;;;;;;;;-3.10;90.41;101426.97;5045708;28;19916;-76
2021/12/21 02:38:32;;;;;;;;;;;;;;;-3.08;89.70;101420.00;5032132;28;20385;-76
2021/12/21 02:40:58;;;;;;;;;;;;;;;-3.08;90.69;101412.22;5049408;28;20014;-76
2021/12/21 02:43:23;;;;;;;;;;;;;;;-3.18;90.38;101415.13;5040668;28;19968;-76
2021/12/21 02:45:48;;;;;;;;;;;;;;;-3.32;91.80;101411.16;5049077;28;19921;-76
2021/12/21 02:48:13;;;;;;;;;;;;;;;-3.32;91.80;101411.16;5049541;28;19927;-76
2021/12/21 02:50:39;;;;;;;;;;;;;;;-3.25;90.70;101404.94;5050327;28;19983;-76
2021/12/21 02:53:04;;;;;;;;;;;;;;;-3.25;90.79;101407.53;5036964;28;19928;-76
2021/12/21 02:55:30;;;;;;;;;;;;;;;-3.18;90.13;101407.38;5030681;28;19921;-76
2021/12/21 02:57:57;;;;;;;;;;;;;;;-3.17;89.58;101403.88;5039757;28;19928;-76
2021/12/21 03:00:23;;;;;;;;;;;;;;;-3.18;90.80;101412.53;5042468;28;20069;-76
2021/12/21 03:02:48;;;;;;;;;;;;;;;-3.21;90.15;101410.88;5043491;28;19925;-76
2021/12/21 03:05:13;;;;;;;;;;;;;;;-3.26;91.17;101411.00;5044562;28;19924;-76
2021/12/21 03:10:24;;;;;;;;;;;;;;;-3.24;91.89;101406.66;5046518;28;19959;-74
2021/12/21 03:15:34;;;;;;;;;;;;;;;-3.39;92.29;101412.22;5052077;28;19928;-75
2021/12/21 03:18:00;;;;;;;;;;;;;;;-3.40;91.84;101404.53;5039791;28;19936;-75
2021/12/21 03:20:25;;;;;;;;;;;;;;;-3.36;91.32;101412.16;5038097;28;19931;-75
2021/12/21 03:22:50;;;;;;;;;;;;;;;-3.17;90.27;101414.22;5050527;28;19971;-75
2021/12/21 03:25:16;;;;;;;;;;;;;;;-3.10;91.05;101413.16;5050289;28;19921;-75
2021/12/21 03:27:41;;;;;;;;;;;;;;;-3.01;90.34;101407.75;5050085;28;19920;-75
2021/12/21 03:30:08;;;;;;;;;;;;;;;-3.00;90.92;101406.88;5045186;28;19921;-75
2021/12/21 03:32:34;;;;;;;;;;;;;;;-2.89;89.91;101407.38;5048559;28;20342;-75
2021/12/21 03:34:59;;;;;;;;;;;;;;;-2.79;89.91;101402.78;5048859;28;20015;-75
2021/12/21 03:37:24;;;;;;;;;;;;;;;-2.66;90.00;101403.28;5049490;28;19921;-75
2021/12/21 03:39:52;;;;;;;;;;;;;;;-2.51;89.13;101399.38;5047232;28;19932;-75
2021/12/21 03:42:18;;;;;;;;;;;;;;;-2.48;89.06;101388.91;5047769;28;20275;-75
2021/12/21 03:44:43;;;;;;;;;;;;;;;-2.42;88.95;101394.78;5031008;28;19921;-75
2021/12/21 03:47:10;;;;;;;;;;;;;;;-2.39;88.71;101391.22;5042198;28;19960;-75
2021/12/21 03:52:15;;;;;;;;;;;;;;;-2.23;87.72;101389.03;5046864;28;19920;-75
2021/12/21 03:54:42;;;;;;;;;;;;;;;-2.13;87.88;101387.81;5039650;28;19925;-75
2021/12/21 03:57:07;;;;;;;;;;;;;;;-2.16;87.55;101387.94;5047227;28;19920;-75
2021/12/21 03:59:32;;;;;;;;;;;;;;;-2.16;87.51;101386.19;5035085;28;19931;-75
2021/12/21 04:01:58;;;;;;;;;;;;;;;-2.16;87.63;101386.19;5041547;28;19925;-74
2021/12/21 04:04:24;;;;;;;;;;;;;;;-2.20;87.56;101383.72;5028925;28;20400;-75
2021/12/21 04:06:50;;;;;;;;;;;;;;;-2.19;87.72;101380.25;5029525;28;20412;-75
2021/12/21 04:09:15;;;;;;;;;;;;;;;-2.16;87.55;101374.97;5040536;28;19941;-75
2021/12/21 04:11:40;;;;;;;;;;;;;;;-2.14;87.39;101376.63;5038766;28;19960;-75
2021/12/21 04:14:06;;;;;;;;;;;;;;;-2.16;87.39;101382.75;5029615;28;20038;-76
2021/12/21 04:16:31;;;;;;;;;;;;;;;-2.11;87.18;101378.25;5023154;28;19956;-75
2021/12/21 04:18:56;;;;;;;;;;;;;;;-2.13;87.16;101382.63;5039965;28;19931;-75
2021/12/21 04:21:22;;;;;;;;;;;;;;;-2.06;86.81;101385.88;5041259;28;19931;-75
2021/12/21 04:23:47;;;;;;;;;;;;;;;-2.06;86.81;101385.88;5038665;28;19934;-75
2021/12/21 04:26:13;;;;;;;;;;;;;;;-2.08;86.53;101393.69;5044038;28;19953;-75
2021/12/21 04:28:39;;;;;;;;;;;;;;;-2.06;86.70;101384.13;5036449;28;20393;-75
2021/12/21 04:31:05;;;;;;;;;;;;;;;-2.05;86.70;101382.38;5044977;28;19921;-75
2021/12/21 04:33:30;;;;;;;;;;;;;;;-2.06;86.52;101385.88;5041075;28;19917;-75
2021/12/21 04:35:56;;;;;;;;;;;;;;;-2.09;86.55;101386.84;5035025;28;19925;-75
2021/12/21 04:38:24;;;;;;;;;;;;;;;-2.12;86.90;101379.16;5034269;28;19929;-75
2021/12/21 04:41:04;;;;;;;;;;;;;;;-2.14;86.89;101379.22;5037152;28;20323;-75
2021/12/21 04:43:30;;;;;;;;;;;;;;;-2.13;87.12;101378.28;5033577;28;19960;-75
2021/12/21 04:45:55;;;;;;;;;;;;;;;-2.05;87.01;101374.59;5036619;28;19956;-75
2021/12/21 04:48:20;;;;;;;;;;;;;;;-2.08;86.70;101378.16;5041311;28;19964;-75
2021/12/21 04:50:46;;;;;;;;;;;;;;;-2.10;86.98;101376.50;5052213;28;19982;-75
2021/12/21 04:53:11;;;;;;;;;;;;;;;-2.14;86.87;101375.78;5052352;28;19940;-75
2021/12/21 04:55:36;;;;;;;;;;;;;;;-2.16;86.94;101374.97;5053458;28;19939;-74
2021/12/21 04:58:02;;;;;;;;;;;;;;;-2.22;87.04;101375.16;5052169;28;20497;-74
2021/12/21 05:00:28;;;;;;;;;;;;;;;-2.20;86.85;101374.22;5049788;28;20185;-74
2021/12/21 05:02:53;;;;;;;;;;;;;;;-2.22;87.14;101375.16;5052273;28;20294;-74
2021/12/21 05:05:18;;;;;;;;;;;;;;;-2.25;87.43;101380.44;5052749;28;19921;-76
2021/12/21 05:07:48;;;;;;;;;;;;;;;-2.28;87.51;101373.63;5034327;28;19920;-76
2021/12/21 05:10:13;;;;;;;;;;;;;;;-2.23;87.47;101379.50;5033404;28;19990;-76
2021/12/21 05:12:39;;;;;;;;;;;;;;;-2.15;87.47;101377.50;5052393;28;20348;-73
2021/12/21 05:15:05;;;;;;;;;;;;;;;-2.11;86.50;101380.00;5050736;28;20289;-74
2021/12/21 05:17:31;;;;;;;;;;;;;;;-2.08;86.86;101375.56;5046123;28;19944;-76
2021/12/21 05:19:56;;;;;;;;;;;;;;;-2.05;86.51;101379.78;5040081;28;19925;-76
2021/12/21 05:22:21;;;;;;;;;;;;;;;-2.07;86.58;101377.28;5051721;28;20012;-76
2021/12/21 05:24:47;;;;;;;;;;;;;;;-2.04;86.78;101379.75;5029168;28;19947;-76
2021/12/21 05:27:12;;;;;;;;;;;;;;;-2.04;86.65;101373.72;5046034;28;19921;-74
2021/12/21 05:29:38;;;;;;;;;;;;;;;-2.08;86.87;101380.75;5047065;28;20008;-74
2021/12/21 05:32:04;;;;;;;;;;;;;;;-2.00;86.51;101381.34;5052238;28;19928;-74
2021/12/21 05:34:30;;;;;;;;;;;;;;;-2.13;86.64;101377.47;5027505;28;20014;-75
2021/12/21 05:36:55;;;;;;;;;;;;;;;-2.04;86.49;101373.72;5047022;28;19956;-74
2021/12/21 05:39:24;;;;;;;;;;;;;;;-2.05;86.35;101379.78;5050167;28;19959;-74
2021/12/21 05:41:51;;;;;;;;;;;;;;;-2.03;86.40;101375.41;5042317;28;20024;-75
2021/12/21 05:44:18;;;;;;;;;;;;;;;-2.06;86.46;101380.69;5053628;28;19917;-75
2021/12/21 05:46:43;;;;;;;;;;;;;;;-2.08;86.60;101378.16;5049551;28;19920;-75
2021/12/21 05:49:08;;;;;;;;;;;;;;;-2.12;86.68;101386.94;5044691;28;19920;-75
2021/12/21 05:51:34;;;;;;;;;;;;;;;-2.18;86.91;101387.97;5036204;28;19960;-75
2021/12/21 05:53:59;;;;;;;;;;;;;;;-2.27;87.37;101392.59;5047420;28;19929;-75
2021/12/21 05:56:24;;;;;;;;;;;;;;;-2.29;87.33;101387.44;5039775;28;19983;-75
2021/12/21 05:58:49;;;;;;;;;;;;;;;-2.31;87.14;101391.00;5052297;28;20006;-75
2021/12/21 06:01:15;;;;;;;;;;;;;;;-2.38;87.71;101388.59;5033178;28;19959;-75
2021/12/21 06:03:40;;;;;;;;;;;;;;;-2.33;87.71;101388.47;5044428;28;19921;-75
2021/12/21 06:06:11;;;;;;;;;;;;;;;-2.28;87.40;101393.50;5041043;28;19920;-76
2021/12/21 06:08:36;;;;;;;;;;;;;;;-2.22;87.01;101390.69;5049976;28;20434;-75
2021/12/21 06:11:05;;;;;;;;;;;;;;;-2.23;86.86;101384.69;5051149;28;19921;-75
2021/12/21 06:26:25;;;;;;;;;;;;;;;-2.10;86.64;101392.91;5049569;28;19928;-75
2021/12/21 06:28:50;;;;;;;;;;;;;;;-2.06;86.39;101376.34;5050713;28;19917;-75
2021/12/21 06:31:16;;;;;;;;;;;;;;;-2.09;86.62;101386.84;5051397;28;20298;-75
2021/12/21 06:33:42;;;;;;;;;;;;;;;-2.07;86.54;101392.81;5050424;28;20385;-75
2021/12/21 06:36:07;;;;;;;;;;;;;;;-2.15;86.96;101389.59;5033880;28;19920;-75
2021/12/21 06:38:33;;;;;;;;;;;;;;;-2.20;87.48;101389.75;5039625;28;19926;-75
2021/12/21 06:40:58;;;;;;;;;;;;;;;-2.21;87.44;101382.88;5028735;28;20043;-75
2021/12/21 06:43:23;;;;;;;;;;;;;;;-2.25;87.63;101383.88;5038522;28;19928;-75
2021/12/21 06:46:10;;;;;;;;;;;;;;;-2.19;87.34;101391.47;5042625;28;20420;-75
2021/12/21 06:51:32;;;;;;;;;;;;;;;-2.13;86.74;101396.44;5036764;28;19927;-76
2021/12/21 06:53:58;;;;;;;;;;;;;;;-2.17;86.89;101402.63;5034832;28;19920;-75
2021/12/21 06:56:24;;;;;;;;;;;;;;;-2.17;87.01;101404.34;5047481;28;19928;-75
2021/12/21 06:58:49;;;;;;;;;;;;;;;-2.09;86.80;101411.91;5051802;28;19925;-75
2021/12/21 07:01:15;;;;;;;;;;;;;;;-2.05;86.23;101403.13;5053222;28;19928;-75
2021/12/21 07:03:42;;;;;;;;;;;;;;;-1.98;86.13;101402.88;5052859;28;19917;-75
2021/12/21 07:06:07;;;;;;;;;;;;;;;-1.99;86.18;101410.69;5052131;28;20192;-75
2021/12/21 07:08:42;;;;;;;;;;;;;;;-1.99;86.17;101403.78;5036707;28;19916;-75
2021/12/21 07:11:16;;;;;;;;;;;;;;;-1.97;86.42;101396.78;5053136;28;19925;-76
2021/12/21 07:19:09;;;;;;;;;;;;;;;-1.84;86.05;101402.41;5048060;28;19932;-75
2021/12/21 07:21:35;;;;;;;;;;;;;;;-1.84;86.00;101406.75;5053736;28;19921;-75
2021/12/21 07:24:00;;;;;;;;;;;;;;;-1.89;86.19;101406.91;5052957;28;19948;-75
2021/12/21 07:26:26;;;;;;;;;;;;;;;-1.91;85.98;101398.31;5050657;28;20374;-75
2021/12/21 07:28:51;;;;;;;;;;;;;;;-1.81;85.59;101406.66;5051159;28;19916;-75
2021/12/21 07:31:17;;;;;;;;;;;;;;;-1.87;85.85;101410.28;5049888;28;19942;-75
2021/12/21 07:33:42;;;;;;;;;;;;;;;-1.83;85.80;101413.66;5048081;28;19921;-75
2021/12/21 07:36:07;;;;;;;;;;;;;;;-1.86;85.74;101413.72;5030876;28;20007;-75
2021/12/21 07:38:33;;;;;;;;;;;;;;;-1.85;85.65;101418.03;5050088;28;20320;-75
2021/12/21 07:40:58;;;;;;;;;;;;;;;-1.87;85.47;101418.06;5050205;28;19924;-75
2021/12/21 07:43:24;;;;;;;;;;;;;;;-1.87;85.57;101425.00;5037425;28;20012;-75
2021/12/21 07:45:49;;;;;;;;;;;;;;;-1.98;86.31;101421.03;5049089;28;19932;-75
2021/12/21 07:48:15;;;;;;;;;;;;;;;-1.94;86.08;101421.75;5037158;28;20341;-75
2021/12/21 07:50:41;;;;;;;;;;;;;;;-1.84;85.67;101430.09;5028177;28;19921;-75
2021/12/21 07:53:06;;;;;;;;;;;;;;;-1.97;85.91;101425.31;5027388;28;19924;-75
2021/12/21 07:55:31;;;;;;;;;;;;;;;-2.04;86.58;101434.16;5029658;28;19921;-75
2021/12/21 07:57:57;;;;;;;;;;;;;;;-1.98;86.14;101431.41;5027568;28;19967;-75
2021/12/21 08:00:23;;;;;;;;;;;;;;;-1.86;85.65;101427.56;5027152;28;19925;-75
2021/12/21 08:02:49;;;;;;;;;;;;;;;-1.84;85.38;101428.34;5014173;28;20341;-75
2021/12/21 08:05:14;;;;;;;;;;;;;;;-1.91;85.63;101421.66;5021556;28;19926;-75
2021/12/21 08:07:48;;;;;;;;;;;;;;;-1.95;85.82;101426.09;5027571;28;20481;-75
2021/12/21 08:10:51;;;;;;;;;;;;;;;-1.95;85.94;101436.47;5026074;28;19952;-75
2021/12/21 08:13:05;;;;;;;;;;;;;;;-1.93;86.19;101434.69;5027295;28;19967;-74
2021/12/21 08:15:30;;;;;;;;;;;;;;;-1.98;86.32;101426.22;5029689;28;19922;-74
2021/12/21 08:17:55;;;;;;;;;;;;;;;-1.83;86.13;101435.22;5024125;28;19994;-75
2021/12/21 08:20:20;;;;;;;;;;;;;;;-1.73;85.94;101433.19;5025776;28;19940;-75
2021/12/21 08:22:45;;;;;;;;;;;;;;;-1.67;85.38;101432.97;5027903;28;20029;-75
2021/12/21 08:25:11;;;;;;;;;;;;;;;-1.63;85.12;101428.53;5027688;28;20833;-75
2021/12/21 08:27:36;;;;;;;;;;;;;;;-1.64;85.36;101424.25;5026220;28;19929;-75
2021/12/21 08:30:01;;;;;;;;;;;;;;;-1.74;85.58;101427.16;5021349;28;20071;-75
2021/12/21 08:32:27;;;;;;;;;;;;;;;-1.63;85.46;101437.16;5009513;28;19982;-75
2021/12/21 08:34:52;;;;;;;;;;;;;;;-1.56;85.29;101433.44;5026878;28;19932;-75
2021/12/21 08:37:17;;;;;;;;;;;;;;;-1.48;85.02;101420.22;5023932;28;20035;-75
2021/12/21 08:39:43;;;;;;;;;;;;;;;-1.41;84.47;101428.66;5026356;28;19925;-75
2021/12/21 08:42:12;;;;;;;;;;;;;;;-1.32;83.76;101433.53;5039099;28;19921;-75
2021/12/21 08:44:37;;;;;;;;;;;;;;;-1.32;83.85;101439.53;5028660;28;19931;-75
2021/12/21 08:47:03;;;;;;;;;;;;;;;-1.43;84.20;101440.81;5022684;28;20237;-75
2021/12/21 08:49:29;;;;;;;;;;;;;;;-1.35;84.26;101446.59;5031502;28;19999;-75
2021/12/21 08:51:55;;;;;;;;;;;;;;;-1.38;84.62;101444.97;5039758;28;19924;-75
2021/12/21 08:54:20;;;;;;;;;;;;;;;-1.43;84.83;101454.66;5032021;28;19921;-75
2021/12/21 08:56:48;;;;;;;;;;;;;;;-1.31;84.44;101456.81;5042633;28;19927;-75
2021/12/21 08:59:15;;;;;;;;;;;;;;;-1.11;83.33;101450.09;5025422;28;20166;-74
2021/12/21 09:01:40;;;;;;;;;;;;;;;-1.10;83.85;101447.44;5022768;28;20959;-75
2021/12/21 09:04:05;;;;;;;;;;;;;;;-1.02;83.13;101449.75;5021767;28;20007;-75
2021/12/21 09:06:30;;;;;;;;;;;;;;;-0.94;82.85;101449.47;5031603;28;20297;-75
2021/12/21 09:08:55;;;;;;;;;;;;;;;-0.82;82.12;101445.59;5030594;28;19921;-74
2021/12/21 09:11:21;;;;;;;;;;;;;;;-0.89;82.14;101432.81;5041474;28;19925;-74
2021/12/21 09:13:46;;;;;;;;;;;;;;;-0.85;82.42;101438.78;5035053;28;20305;-75
2021/12/21 09:16:11;;;;;;;;;;;;;;;-0.81;81.40;101439.50;5042385;28;20382;-75
2021/12/21 09:18:36;;;;;;;;;;;;;;;-0.78;81.77;101440.25;5040615;28;19960;-74
2021/12/21 09:21:02;;;;;;;;;;;;;;;-0.76;81.63;101441.03;5032242;28;20382;-74
2021/12/21 09:23:28;;;;;;;;;;;;;;;-0.68;80.92;101448.53;5021544;28;19925;-75
2021/12/21 09:25:54;;;;;;;;;;;;;;;-0.66;81.00;101442.38;5037406;28;19939;-75
2021/12/21 09:28:19;;;;;;;;;;;;;;;-0.65;81.44;101443.22;5028580;28;19921;-75
2021/12/21 09:30:44;;;;;;;;;;;;;;;-0.61;81.24;101447.41;5039037;28;20010;-75
2021/12/21 09:33:09;;;;;;;;;;;;;;;-0.55;81.22;101446.31;5035887;28;19921;-75
2021/12/21 09:35:34;;;;;;;;;;;;;;;-0.53;80.94;101444.50;5050761;28;19920;-75
2021/12/21 09:38:00;;;;;;;;;;;;;;;-0.50;80.61;101445.25;5049265;28;19925;-75
2021/12/21 09:40:28;;;;;;;;;;;;;;;-0.43;80.50;101445.84;5041600;28;20405;-74
2021/12/21 09:42:54;;;;;;;;;;;;;;;-0.31;80.78;101444.53;5030892;28;19967;-75
2021/12/21 09:45:19;;;;;;;;;;;;;;;-0.28;80.32;101449.63;5022867;28;19936;-75
2021/12/21 09:47:44;;;;;;;;;;;;;;;-0.24;79.94;101440.78;5025053;28;19917;-75
2021/12/21 09:50:11;;;;;;;;;;;;;;;-0.09;79.26;101441.94;5030871;28;19964;-75
2021/12/21 09:52:36;;;;;;;;;;;;;;;-0.15;79.21;101442.19;5031680;28;20301;-75
2021/12/21 09:55:07;;;;;;;;;;;;;;;-0.09;79.23;101440.19;5031636;28;19921;-75
2021/12/21 09:57:32;;;;;;;;;;;;;;;-0.31;80.13;101445.41;5013449;28;20028;-75
2021/12/21 09:59:58;;;;;;;;;;;;;;;-0.23;80.16;101445.94;5031012;28;20439;-74
2021/12/21 10:02:26;;;;;;;;;;;;;;;-0.15;80.69;101437.81;5009836;28;19921;-75
2021/12/21 10:04:56;;;;;;;;;;;;;;;0.02;79.67;101431.94;5031505;28;19927;-75
2021/12/21 10:07:22;;;;;;;;;;;;;;;-0.02;79.72;101439.03;5030792;28;19967;-75
2021/12/21 10:09:47;;;;;;;;;;;;;;;0.08;79.50;101438.69;5013561;28;19982;-75
2021/12/21 10:12:14;;;;;;;;;;;;;;;0.20;79.36;101425.16;5029963;28;19924;-75
2021/12/21 10:14:39;;;;;;;;;;;;;;;0.19;79.27;101426.06;5031270;28;20067;-75
2021/12/21 10:17:06;;;;;;;;;;;;;;;0.32;78.40;101419.44;5029942;28;20008;-75
2021/12/21 10:19:32;;;;;;;;;;;;;;;0.33;78.50;101417.69;5020143;28;19925;-75
2021/12/21 10:22:07;;;;;;;;;;;;;;;0.41;79.11;101410.44;5027753;28;19925;-75
2021/12/21 10:24:32;;;;;;;;;;;;;;;0.42;78.64;101415.53;5012662;28;19921;-75
2021/12/21 10:27:07;;;;;;;;;;;;;;;0.42;78.34;101412.09;5030465;28;20330;-76
2021/12/21 10:29:43;;;;;;;;;;;;;;;0.62;77.36;101419.91;5016063;28;19921;-75
2021/12/21 10:32:15;;;;;;;;;;;;;;;0.40;77.62;101417.34;5022818;28;20361;-75
2021/12/21 10:34:49;;;;;;;;;;;;;;;0.51;78.21;101421.28;5030734;28;19971;-75
2021/12/21 10:37:27;;;;;;;;;;;;;;;0.66;77.66;101420.63;5029547;28;19979;-75
2021/12/21 10:40:03;;;;;;;;;;;;;;;0.69;77.74;101419.63;5030814;28;19925;-75
2021/12/21 10:42:28;;;;;;;;;;;;;;;0.81;77.65;101412.16;5029718;28;19921;-75
2021/12/21 10:45:01;;;;;;;;;;;;;;;0.75;77.09;101408.97;5026597;28;20374;-75
2021/12/21 10:47:26;;;;;;;;;;;;;;;0.83;77.47;101404.25;5018128;28;19927;-75
2021/12/21 10:49:52;;;;;;;;;;;;;;;0.85;77.14;101405.88;5035806;28;19922;-75
2021/12/21 10:52:20;;;;;;;;;;;;;;;1.00;77.23;101403.50;5035940;28;20281;-75
2021/12/21 10:54:46;;;;;;;;;;;;;;;1.03;76.74;101395.59;5044462;28;19921;-75
2021/12/21 10:57:19;;;;;;;;;;;;;;;1.16;77.16;101396.69;5026751;28;19921;-76
2021/12/21 10:59:52;;;;;;;;;;;;;;;1.32;75.95;101399.47;5033728;28;19978;-75
2021/12/21 11:02:24;;;;;;;;;;;;;;;1.53;75.67;101402.00;5030171;28;19921;-75
2021/12/21 11:04:54;;;;;;;;;;;;;;;1.59;75.02;101393.88;5027875;28;20370;-76
2021/12/21 11:07:29;;;;;;;;;;;;;;;1.43;74.83;101396.34;5041538;28;19928;-77
2021/12/21 11:09:56;;;;;;;;;;;;;;;1.48;75.35;101387.41;5035414;28;19925;-77
2021/12/21 11:12:22;;;;;;;;;;;;;;;1.63;76.14;101382.38;5015757;28;19925;-76
2021/12/21 11:14:48;;;;;;;;;;;;;;;1.72;74.33;101376.72;5032529;28;19925;-77
2021/12/21 11:17:15;;;;;;;;;;;;;;;1.72;74.17;101376.72;5030603;28;19967;-77
2021/12/21 11:19:40;;;;;;;;;;;;;;;1.73;74.68;101367.13;5034130;28;19925;-77
2021/12/21 11:22:05;;;;;;;;;;;;;;;1.79;74.29;101362.47;5025089;28;20409;-77
2021/12/21 11:24:34;;;;;;;;;;;;;;;1.87;73.61;101364.69;5015996;28;19921;-77
2021/12/21 11:27:02;;;;;;;;;;;;;;;1.88;73.22;101361.16;5038480;28;19921;-77
2021/12/21 11:29:30;;;;;;;;;;;;;;;2.00;74.29;101347.53;5039210;28;19978;-76
2021/12/21 11:31:57;;;;;;;;;;;;;;;2.12;73.22;101353.88;5048917;28;19967;-76
2021/12/21 11:34:31;;;;;;;;;;;;;;;2.20;72.77;101354.34;5033067;28;19921;-77
2021/12/21 11:39:41;;;;;;;;;;;;;;;2.34;71.84;101348.44;5021488;28;19972;-77
2021/12/21 11:42:08;;;;;;;;;;;;;;;2.44;72.18;101344.44;5038323;28;20345;-76
2021/12/21 11:44:46;;;;;;;;;;;;;;;2.55;71.42;101338.63;5036991;28;20070;-77
2021/12/21 11:47:15;;;;;;;;;;;;;;;2.50;72.31;101344.13;5032303;28;19968;-77
2021/12/21 11:49:43;;;;;;;;;;;;;;;2.54;71.21;101340.41;5045276;28;19959;-77
2021/12/21 11:52:13;;;;;;;;;;;;;;;2.53;70.02;101333.50;5042836;28;19925;-77
2021/12/21 11:54:55;;;;;;;;;;;;;;;2.58;72.19;101343.72;5044510;28;19924;-77
2021/12/21 11:57:32;;;;;;;;;;;;;;;2.63;71.95;101340.88;5047992;28;19920;-77
2021/12/21 12:00:04;;;;;;;;;;;;;;;2.70;71.21;101344.84;5046473;28;19925;-77
2021/12/21 12:02:31;;;;;;;;;;;;;;;2.82;70.14;101341.56;5048853;28;19960;-77
2021/12/21 12:04:56;;;;;;;;;;;;;;;2.73;69.09;101335.06;5048584;28;20381;-78
2021/12/21 12:07:22;;;;;;;;;;;;;;;2.79;69.41;101327.81;5046674;28;19928;-77
2021/12/21 12:10:01;;;;;;;;;;;;;;;2.84;69.20;101339.72;5031119;28;19932;-78
2021/12/21 12:12:27;;;;;;;;;;;;;;;2.86;69.79;101340.50;5047573;28;20017;-77
2021/12/21 12:14:59;;;;;;;;;;;;;;;2.83;67.16;101337.19;5049655;28;20062;-78
2021/12/21 12:17:26;;;;;;;;;;;;;;;2.88;67.00;101341.22;5049117;28;19927;-78
2021/12/21 12:19:53;;;;;;;;;;;;;;;2.77;65.65;101335.75;5049347;28;19925;-78
2021/12/21 12:22:24;;;;;;;;;;;;;;;2.85;67.88;101332.72;5047199;28;20003;-77
2021/12/21 12:24:56;;;;;;;;;;;;;;;2.96;66.69;101333.84;5037496;28;19921;-77
2021/12/21 12:27:23;;;;;;;;;;;;;;;3.03;67.91;101331.75;5027348;28;19925;-77
2021/12/21 12:29:49;;;;;;;;;;;;;;;3.04;68.17;101324.75;5048000;28;19978;-77
2021/12/21 12:32:16;;;;;;;;;;;;;;;3.06;68.49;101331.56;5046335;28;19920;-77
2021/12/21 12:34:42;;;;;;;;;;;;;;;3.08;66.97;101334.09;5049851;28;19921;-77
2021/12/21 12:37:24;;;;;;;;;;;;;;;3.14;68.73;101339.81;5033620;28;19956;-78
2021/12/21 12:39:51;;;;;;;;;;;;;;;3.17;68.54;101330.97;5032529;28;19931;-78
2021/12/21 12:42:23;;;;;;;;;;;;;;;3.15;68.50;101330.22;5053669;28;19964;-78
2021/12/21 12:44:50;;;;;;;;;;;;;;;3.21;67.89;101327.25;5049404;28;19995;-78
2021/12/21 12:47:16;;;;;;;;;;;;;;;3.15;66.29;101325.84;5051688;28;19927;-77
2021/12/21 12:49:52;;;;;;;;;;;;;;;3.23;67.73;101314.97;5054933;28;20180;-77
2021/12/21 12:52:19;;;;;;;;;;;;;;;3.20;67.85;101328.19;5051193;28;19920;-78
2021/12/21 12:54:52;;;;;;;;;;;;;;;3.20;68.32;101312.53;5044724;28;19978;-77
2021/12/21 12:57:27;;;;;;;;;;;;;;;3.16;68.43;101322.28;5050969;28;20301;-76
2021/12/21 12:59:54;;;;;;;;;;;;;;;3.18;67.91;101320.44;5037573;28;19932;-77
2021/12/21 13:02:19;;;;;;;;;;;;;;;3.19;66.88;101310.81;5035211;28;19924;-78
2021/12/21 13:04:44;;;;;;;;;;;;;;;3.14;65.19;101313.69;5035783;28;19920;-78
2021/12/21 13:07:10;;;;;;;;;;;;;;;3.11;65.46;101311.25;5033469;28;19921;-77
2021/12/21 13:09:35;;;;;;;;;;;;;;;3.22;66.15;101305.44;5016944;28;20012;-78
2021/12/21 13:12:00;;;;;;;;;;;;;;;3.22;65.79;101304.56;5037106;28;19929;-77
2021/12/21 13:14:25;;;;;;;;;;;;;;;3.11;65.72;101308.63;5035626;28;19917;-77
2021/12/21 13:16:51;;;;;;;;;;;;;;;3.12;67.30;101309.47;5036991;28;19927;-78
2021/12/21 13:19:17;;;;;;;;;;;;;;;3.10;66.46;101299.13;5027526;28;19952;-78
2021/12/21 13:21:57;;;;;;;;;;;;;;;3.17;67.11;101300.47;5048637;28;19974;-77
2021/12/21 13:24:25;;;;;;;;;;;;;;;3.24;66.51;101300.94;5049608;28;19928;-77
2021/12/21 13:26:55;;;;;;;;;;;;;;;3.08;66.82;101298.38;5035037;28;19967;-77
2021/12/21 13:29:47;;;;;;;;;;;;;;;3.22;67.06;101291.50;5028151;28;20476;-78
2021/12/21 13:32:15;;;;;;;;;;;;;;;3.17;66.27;101291.75;5039163;28;19928;-78
2021/12/21 13:34:42;;;;;;;;;;;;;;;3.17;67.18;101287.41;5048722;28;20015;-78
2021/12/21 13:37:09;;;;;;;;;;;;;;;3.24;66.50;101287.03;5028463;28;19928;-77
2021/12/21 13:39:41;;;;;;;;;;;;;;;3.22;66.92;101286.28;5037345;28;19932;-77
2021/12/21 13:42:10;;;;;;;;;;;;;;;3.24;67.18;101280.03;5025777;28;20362;-77
2021/12/21 13:44:40;;;;;;;;;;;;;;;3.24;66.53;101281.81;5026316;28;19951;-78
2021/12/21 13:47:15;;;;;;;;;;;;;;;3.05;66.39;101284.59;5027381;28;19925;-77
2021/12/21 13:50:12;;;;;;;;;;;;;;;3.01;65.83;101273.50;5045252;28;20072;-77
2021/12/21 13:52:43;;;;;;;;;;;;;;;3.08;66.91;101272.22;4984292;28;20597;-76
2021/12/21 13:55:20;;;;;;;;;;;;;;;3.04;66.47;101281.16;5043789;28;20348;-77